sensor_id;sensor_type;location;lat;lon;timestamp;P1;durP1;ratioP1;P2;durP2;ratioP2
6821;SDS011;3449;48.728;8.968;2024-02-26T00:02:00;4.23;;;2.63;;
6821;SDS011;3449;48.728;8.968;2024-02-26T00:04:28;2.63;;;1.70;;
6821;SDS011;3449;48.728;8.968;2024-02-26T00:06:55;2.60;;;2.00;;
6821;SDS011;3449;48.728;8.968;2024-02-26T00:09:23;1.73;;;1.63;;
6821;SDS011;3449;48.728;8.968;2024-02-26T00:11:50;2.33;;;1.60;;
6821;SDS011;3449;48.728;8.968;2024-02-26T00:14:16;2.43;;;1.33;;
6821;SDS011;3449;48.728;8.968;2024-02-26T00:16:43;5.50;;;2.07;;
6821;SDS011;3449;48.728;8.968;2024-02-26T00:19:11;3.03;;;1.67;;
6821;SDS011;3449;48.728;8.968;2024-02-26T00:21:41;2.37;;;2.13;;
6821;SDS011;3449;48.728;8.968;2024-02-26T00:24:07;2.43;;;1.73;;
6821;SDS011;3449;48.728;8.968;2024-02-26T00:26:34;2.83;;;1.87;;
6821;SDS011;3449;48.728;8.968;2024-02-26T00:29:01;2.73;;;1.60;;
6821;SDS011;3449;48.728;8.968;2024-02-26T00:31:28;1.90;;;1.50;;
6821;SDS011;3449;48.728;8.968;2024-02-26T00:33:55;2.77;;;2.03;;
6821;SDS011;3449;48.728;8.968;2024-02-26T00:36:22;2.93;;;2.20;;
6821;SDS011;3449;48.728;8.968;2024-02-26T00:38:50;1.83;;;1.60;;
6821;SDS011;3449;48.728;8.968;2024-02-26T00:41:17;2.20;;;1.80;;
6821;SDS011;3449;48.728;8.968;2024-02-26T00:43:44;2.70;;;1.60;;
6821;SDS011;3449;48.728;8.968;2024-02-26T00:46:11;5.77;;;2.10;;
6821;SDS011;3449;48.728;8.968;2024-02-26T00:48:37;2.63;;;1.80;;
6821;SDS011;3449;48.728;8.968;2024-02-26T00:51:04;1.70;;;1.53;;
6821;SDS011;3449;48.728;8.968;2024-02-26T00:53:32;3.03;;;2.07;;
6821;SDS011;3449;48.728;8.968;2024-02-26T00:56:00;2.80;;;1.77;;
6821;SDS011;3449;48.728;8.968;2024-02-26T00:58:27;2.20;;;1.80;;
6821;SDS011;3449;48.728;8.968;2024-02-26T01:00:54;2.87;;;2.03;;
6821;SDS011;3449;48.728;8.968;2024-02-26T01:03:21;2.53;;;1.70;;
6821;SDS011;3449;48.728;8.968;2024-02-26T01:05:48;2.87;;;2.23;;
6821;SDS011;3449;48.728;8.968;2024-02-26T01:08:14;3.50;;;2.00;;
6821;SDS011;3449;48.728;8.968;2024-02-26T01:10:41;3.10;;;1.60;;
6821;SDS011;3449;48.728;8.968;2024-02-26T01:13:09;1.90;;;1.50;;
6821;SDS011;3449;48.728;8.968;2024-02-26T01:15:36;2.23;;;1.67;;
6821;SDS011;3449;48.728;8.968;2024-02-26T01:18:03;2.00;;;1.30;;
6821;SDS011;3449;48.728;8.968;2024-02-26T01:20:30;2.70;;;1.90;;
6821;SDS011;3449;48.728;8.968;2024-02-26T01:22:57;2.43;;;1.47;;
6821;SDS011;3449;48.728;8.968;2024-02-26T01:25:24;5.57;;;1.50;;
6821;SDS011;3449;48.728;8.968;2024-02-26T01:27:51;2.03;;;1.60;;
6821;SDS011;3449;48.728;8.968;2024-02-26T01:30:19;1.50;;;1.40;;
6821;SDS011;3449;48.728;8.968;2024-02-26T01:32:46;1.80;;;1.47;;
6821;SDS011;3449;48.728;8.968;2024-02-26T01:35:12;3.80;;;2.00;;
6821;SDS011;3449;48.728;8.968;2024-02-26T01:37:39;6.53;;;2.60;;
6821;SDS011;3449;48.728;8.968;2024-02-26T01:40:07;3.23;;;1.90;;
6821;SDS011;3449;48.728;8.968;2024-02-26T01:42:37;3.13;;;1.93;;
6821;SDS011;3449;48.728;8.968;2024-02-26T01:45:06;3.13;;;1.40;;
6821;SDS011;3449;48.728;8.968;2024-02-26T01:47:41;2.90;;;1.90;;
6821;SDS011;3449;48.728;8.968;2024-02-26T01:50:08;4.50;;;1.83;;
6821;SDS011;3449;48.728;8.968;2024-02-26T01:52:35;2.00;;;1.63;;
6821;SDS011;3449;48.728;8.968;2024-02-26T01:55:02;2.80;;;1.87;;
6821;SDS011;3449;48.728;8.968;2024-02-26T01:57:29;2.30;;;1.60;;
6821;SDS011;3449;48.728;8.968;2024-02-26T01:59:56;2.30;;;2.10;;
6821;SDS011;3449;48.728;8.968;2024-02-26T02:02:23;3.23;;;1.90;;
6821;SDS011;3449;48.728;8.968;2024-02-26T02:04:51;5.60;;;1.83;;
6821;SDS011;3449;48.728;8.968;2024-02-26T02:07:18;3.17;;;1.90;;
6821;SDS011;3449;48.728;8.968;2024-02-26T02:09:47;1.30;;;1.20;;
6821;SDS011;3449;48.728;8.968;2024-02-26T02:12:14;3.70;;;1.47;;
6821;SDS011;3449;48.728;8.968;2024-02-26T02:14:41;1.50;;;1.40;;
6821;SDS011;3449;48.728;8.968;2024-02-26T02:17:08;1.67;;;1.50;;
6821;SDS011;3449;48.728;8.968;2024-02-26T02:19:35;1.53;;;1.43;;
6821;SDS011;3449;48.728;8.968;2024-02-26T02:22:03;1.30;;;1.30;;
6821;SDS011;3449;48.728;8.968;2024-02-26T02:24:30;1.43;;;1.33;;
6821;SDS011;3449;48.728;8.968;2024-02-26T02:26:57;2.50;;;1.30;;
6821;SDS011;3449;48.728;8.968;2024-02-26T02:29:24;1.60;;;1.20;;
6821;SDS011;3449;48.728;8.968;2024-02-26T02:31:52;1.00;;;0.87;;
6821;SDS011;3449;48.728;8.968;2024-02-26T02:34:20;1.10;;;1.00;;
6821;SDS011;3449;48.728;8.968;2024-02-26T02:36:48;1.63;;;0.90;;
6821;SDS011;3449;48.728;8.968;2024-02-26T02:39:17;3.50;;;1.30;;
6821;SDS011;3449;48.728;8.968;2024-02-26T02:41:44;1.70;;;1.10;;
6821;SDS011;3449;48.728;8.968;2024-02-26T02:44:11;1.73;;;0.97;;
6821;SDS011;3449;48.728;8.968;2024-02-26T02:46:38;1.80;;;0.80;;
6821;SDS011;3449;48.728;8.968;2024-02-26T02:49:07;1.47;;;1.03;;
6821;SDS011;3449;48.728;8.968;2024-02-26T02:51:35;0.70;;;0.70;;
6821;SDS011;3449;48.728;8.968;2024-02-26T02:54:02;0.60;;;0.60;;
6821;SDS011;3449;48.728;8.968;2024-02-26T02:56:30;0.60;;;0.60;;
6821;SDS011;3449;48.728;8.968;2024-02-26T02:58:57;0.93;;;0.60;;
6821;SDS011;3449;48.728;8.968;2024-02-26T03:01:24;0.70;;;0.60;;
6821;SDS011;3449;48.728;8.968;2024-02-26T03:03:51;1.07;;;0.70;;
6821;SDS011;3449;48.728;8.968;2024-02-26T03:06:17;0.50;;;0.50;;
6821;SDS011;3449;48.728;8.968;2024-02-26T03:08:46;1.70;;;0.50;;
6821;SDS011;3449;48.728;8.968;2024-02-26T03:11:13;0.60;;;0.50;;
6821;SDS011;3449;48.728;8.968;2024-02-26T03:13:41;0.50;;;0.43;;
6821;SDS011;3449;48.728;8.968;2024-02-26T03:16:08;0.60;;;0.60;;
6821;SDS011;3449;48.728;8.968;2024-02-26T03:18:35;1.43;;;0.70;;
6821;SDS011;3449;48.728;8.968;2024-02-26T03:21:04;0.67;;;0.50;;
6821;SDS011;3449;48.728;8.968;2024-02-26T03:23:31;0.70;;;0.50;;
6821;SDS011;3449;48.728;8.968;2024-02-26T03:26:01;0.50;;;0.50;;
6821;SDS011;3449;48.728;8.968;2024-02-26T03:28:28;0.50;;;0.50;;
6821;SDS011;3449;48.728;8.968;2024-02-26T03:30:57;0.50;;;0.50;;
6821;SDS011;3449;48.728;8.968;2024-02-26T03:33:24;0.60;;;0.40;;
6821;SDS011;3449;48.728;8.968;2024-02-26T03:35:50;0.57;;;0.57;;
6821;SDS011;3449;48.728;8.968;2024-02-26T03:38:17;0.70;;;0.70;;
6821;SDS011;3449;48.728;8.968;2024-02-26T03:40:44;0.97;;;0.53;;
6821;SDS011;3449;48.728;8.968;2024-02-26T03:43:11;0.83;;;0.60;;
6821;SDS011;3449;48.728;8.968;2024-02-26T03:45:38;1.30;;;0.60;;
6821;SDS011;3449;48.728;8.968;2024-02-26T03:48:06;0.50;;;0.40;;
6821;SDS011;3449;48.728;8.968;2024-02-26T03:50:33;0.97;;;0.63;;
6821;SDS011;3449;48.728;8.968;2024-02-26T03:53:00;0.60;;;0.50;;
6821;SDS011;3449;48.728;8.968;2024-02-26T03:55:27;2.47;;;0.97;;
6821;SDS011;3449;48.728;8.968;2024-02-26T03:57:54;0.60;;;0.60;;
6821;SDS011;3449;48.728;8.968;2024-02-26T04:00:22;2.00;;;1.00;;
6821;SDS011;3449;48.728;8.968;2024-02-26T04:02:50;1.53;;;0.50;;
6821;SDS011;3449;48.728;8.968;2024-02-26T04:05:18;0.60;;;0.53;;
6821;SDS011;3449;48.728;8.968;2024-02-26T04:07:45;1.00;;;0.83;;
6821;SDS011;3449;48.728;8.968;2024-02-26T04:10:12;1.30;;;1.20;;
6821;SDS011;3449;48.728;8.968;2024-02-26T04:12:39;1.80;;;1.63;;
6821;SDS011;3449;48.728;8.968;2024-02-26T04:15:06;0.93;;;0.93;;
6821;SDS011;3449;48.728;8.968;2024-02-26T04:17:34;0.80;;;0.80;;
6821;SDS011;3449;48.728;8.968;2024-02-26T04:20:02;3.13;;;0.90;;
6821;SDS011;3449;48.728;8.968;2024-02-26T04:22:31;9.67;;;8.57;;
6821;SDS011;3449;48.728;8.968;2024-02-26T04:24:58;14.00;;;12.57;;
6821;SDS011;3449;48.728;8.968;2024-02-26T04:27:25;9.40;;;8.50;;
6821;SDS011;3449;48.728;8.968;2024-02-26T04:29:52;4.87;;;4.37;;
6821;SDS011;3449;48.728;8.968;2024-02-26T04:32:18;3.20;;;2.97;;
6821;SDS011;3449;48.728;8.968;2024-02-26T04:34:45;1.40;;;1.23;;
6821;SDS011;3449;48.728;8.968;2024-02-26T04:37:12;0.80;;;0.80;;
6821;SDS011;3449;48.728;8.968;2024-02-26T04:39:40;0.90;;;0.90;;
6821;SDS011;3449;48.728;8.968;2024-02-26T04:42:07;0.83;;;0.83;;
6821;SDS011;3449;48.728;8.968;2024-02-26T04:44:34;0.90;;;0.90;;
6821;SDS011;3449;48.728;8.968;2024-02-26T04:47:01;1.47;;;1.10;;
6821;SDS011;3449;48.728;8.968;2024-02-26T04:49:27;3.80;;;1.00;;
6821;SDS011;3449;48.728;8.968;2024-02-26T04:51:54;2.37;;;1.10;;
6821;SDS011;3449;48.728;8.968;2024-02-26T04:54:21;1.33;;;1.23;;
6821;SDS011;3449;48.728;8.968;2024-02-26T04:56:49;3.20;;;1.07;;
6821;SDS011;3449;48.728;8.968;2024-02-26T04:59:16;2.10;;;1.33;;
6821;SDS011;3449;48.728;8.968;2024-02-26T05:01:43;9.80;;;2.20;;
6821;SDS011;3449;48.728;8.968;2024-02-26T05:04:10;10.97;;;2.90;;
6821;SDS011;3449;48.728;8.968;2024-02-26T05:06:37;2.50;;;1.30;;
6821;SDS011;3449;48.728;8.968;2024-02-26T05:09:04;1.53;;;1.00;;
6821;SDS011;3449;48.728;8.968;2024-02-26T05:11:31;1.40;;;1.07;;
6821;SDS011;3449;48.728;8.968;2024-02-26T05:13:59;1.33;;;1.23;;
6821;SDS011;3449;48.728;8.968;2024-02-26T05:16:26;1.77;;;0.90;;
6821;SDS011;3449;48.728;8.968;2024-02-26T05:18:55;12.47;;;1.33;;
6821;SDS011;3449;48.728;8.968;2024-02-26T05:21:22;1.50;;;0.90;;
6821;SDS011;3449;48.728;8.968;2024-02-26T05:23:48;1.30;;;1.20;;
6821;SDS011;3449;48.728;8.968;2024-02-26T05:26:19;2.13;;;1.47;;
6821;SDS011;3449;48.728;8.968;2024-02-26T05:28:47;2.70;;;1.40;;
6821;SDS011;3449;48.728;8.968;2024-02-26T05:31:15;2.50;;;1.47;;
6821;SDS011;3449;48.728;8.968;2024-02-26T05:33:43;2.70;;;1.00;;
6821;SDS011;3449;48.728;8.968;2024-02-26T05:36:09;1.67;;;0.90;;
6821;SDS011;3449;48.728;8.968;2024-02-26T05:38:37;0.50;;;0.50;;
6821;SDS011;3449;48.728;8.968;2024-02-26T05:41:03;0.93;;;0.70;;
6821;SDS011;3449;48.728;8.968;2024-02-26T05:43:31;1.63;;;0.97;;
6821;SDS011;3449;48.728;8.968;2024-02-26T05:45:57;0.80;;;0.80;;
6821;SDS011;3449;48.728;8.968;2024-02-26T05:48:26;0.83;;;0.70;;
6821;SDS011;3449;48.728;8.968;2024-02-26T05:50:52;1.53;;;0.80;;
6821;SDS011;3449;48.728;8.968;2024-02-26T05:53:19;0.73;;;0.73;;
6821;SDS011;3449;48.728;8.968;2024-02-26T05:55:46;1.00;;;0.90;;
6821;SDS011;3449;48.728;8.968;2024-02-26T05:58:13;2.43;;;0.90;;
6821;SDS011;3449;48.728;8.968;2024-02-26T06:00:40;1.83;;;1.13;;
6821;SDS011;3449;48.728;8.968;2024-02-26T06:03:07;1.60;;;0.90;;
6821;SDS011;3449;48.728;8.968;2024-02-26T06:05:35;5.03;;;0.80;;
6821;SDS011;3449;48.728;8.968;2024-02-26T06:08:02;2.03;;;1.17;;
6821;SDS011;3449;48.728;8.968;2024-02-26T06:10:29;0.70;;;0.63;;
6821;SDS011;3449;48.728;8.968;2024-02-26T06:12:56;1.03;;;0.93;;
6821;SDS011;3449;48.728;8.968;2024-02-26T06:15:23;6.00;;;1.20;;
6821;SDS011;3449;48.728;8.968;2024-02-26T06:17:50;0.70;;;0.70;;
6821;SDS011;3449;48.728;8.968;2024-02-26T06:20:16;1.93;;;1.13;;
6821;SDS011;3449;48.728;8.968;2024-02-26T06:22:45;1.23;;;0.83;;
6821;SDS011;3449;48.728;8.968;2024-02-26T06:25:11;4.80;;;2.83;;
6821;SDS011;3449;48.728;8.968;2024-02-26T06:27:38;5.50;;;2.60;;
6821;SDS011;3449;48.728;8.968;2024-02-26T06:30:06;2.70;;;1.90;;
6821;SDS011;3449;48.728;8.968;2024-02-26T06:32:33;1.53;;;1.27;;
6821;SDS011;3449;48.728;8.968;2024-02-26T06:35:00;3.70;;;2.50;;
6821;SDS011;3449;48.728;8.968;2024-02-26T06:37:31;9.87;;;2.67;;
6821;SDS011;3449;48.728;8.968;2024-02-26T06:40:00;4.80;;;2.00;;
6821;SDS011;3449;48.728;8.968;2024-02-26T06:42:29;4.63;;;2.80;;
6821;SDS011;3449;48.728;8.968;2024-02-26T06:44:55;4.97;;;2.53;;
6821;SDS011;3449;48.728;8.968;2024-02-26T06:47:23;7.40;;;3.20;;
6821;SDS011;3449;48.728;8.968;2024-02-26T06:49:51;6.80;;;3.30;;
6821;SDS011;3449;48.728;8.968;2024-02-26T06:52:17;6.53;;;2.40;;
6821;SDS011;3449;48.728;8.968;2024-02-26T06:54:44;4.90;;;1.70;;
6821;SDS011;3449;48.728;8.968;2024-02-26T06:57:14;4.20;;;1.80;;
6821;SDS011;3449;48.728;8.968;2024-02-26T06:59:41;1.57;;;1.47;;
6821;SDS011;3449;48.728;8.968;2024-02-26T07:02:10;1.50;;;1.37;;
6821;SDS011;3449;48.728;8.968;2024-02-26T07:04:37;1.43;;;1.20;;
6821;SDS011;3449;48.728;8.968;2024-02-26T07:07:04;3.23;;;2.20;;
6821;SDS011;3449;48.728;8.968;2024-02-26T07:09:31;3.57;;;2.23;;
6821;SDS011;3449;48.728;8.968;2024-02-26T07:11:58;4.17;;;2.77;;
6821;SDS011;3449;48.728;8.968;2024-02-26T07:14:26;3.53;;;2.23;;
6821;SDS011;3449;48.728;8.968;2024-02-26T07:16:53;4.73;;;2.00;;
6821;SDS011;3449;48.728;8.968;2024-02-26T07:19:20;6.93;;;1.90;;
6821;SDS011;3449;48.728;8.968;2024-02-26T07:21:46;3.87;;;1.67;;
6821;SDS011;3449;48.728;8.968;2024-02-26T07:24:13;2.60;;;1.80;;
6821;SDS011;3449;48.728;8.968;2024-02-26T07:26:40;4.80;;;2.40;;
6821;SDS011;3449;48.728;8.968;2024-02-26T07:29:07;4.00;;;2.10;;
6821;SDS011;3449;48.728;8.968;2024-02-26T07:31:35;4.30;;;2.50;;
6821;SDS011;3449;48.728;8.968;2024-02-26T07:34:02;3.33;;;2.07;;
6821;SDS011;3449;48.728;8.968;2024-02-26T07:36:29;4.60;;;2.33;;
6821;SDS011;3449;48.728;8.968;2024-02-26T07:39:01;2.30;;;1.67;;
6821;SDS011;3449;48.728;8.968;2024-02-26T07:41:28;2.40;;;2.20;;
6821;SDS011;3449;48.728;8.968;2024-02-26T07:43:54;5.03;;;2.20;;
6821;SDS011;3449;48.728;8.968;2024-02-26T07:46:21;3.47;;;1.87;;
6821;SDS011;3449;48.728;8.968;2024-02-26T07:48:49;2.57;;;2.00;;
6821;SDS011;3449;48.728;8.968;2024-02-26T07:51:16;3.40;;;2.00;;
6821;SDS011;3449;48.728;8.968;2024-02-26T07:53:44;2.47;;;1.33;;
6821;SDS011;3449;48.728;8.968;2024-02-26T07:56:11;11.43;;;2.43;;
6821;SDS011;3449;48.728;8.968;2024-02-26T07:58:37;2.57;;;1.70;;
6821;SDS011;3449;48.728;8.968;2024-02-26T08:01:04;1.93;;;1.40;;
6821;SDS011;3449;48.728;8.968;2024-02-26T08:03:32;3.20;;;1.30;;
6821;SDS011;3449;48.728;8.968;2024-02-26T08:06:00;1.33;;;1.20;;
6821;SDS011;3449;48.728;8.968;2024-02-26T08:08:27;2.53;;;1.13;;
6821;SDS011;3449;48.728;8.968;2024-02-26T08:10:54;2.90;;;1.50;;
6821;SDS011;3449;48.728;8.968;2024-02-26T08:13:21;3.23;;;1.83;;
6821;SDS011;3449;48.728;8.968;2024-02-26T08:15:47;3.30;;;2.03;;
6821;SDS011;3449;48.728;8.968;2024-02-26T08:18:15;6.60;;;2.43;;
6821;SDS011;3449;48.728;8.968;2024-02-26T08:20:42;5.97;;;2.10;;
6821;SDS011;3449;48.728;8.968;2024-02-26T08:23:10;6.10;;;2.10;;
6821;SDS011;3449;48.728;8.968;2024-02-26T08:25:37;4.67;;;2.77;;
6821;SDS011;3449;48.728;8.968;2024-02-26T08:28:03;3.53;;;2.60;;
6821;SDS011;3449;48.728;8.968;2024-02-26T08:30:30;3.87;;;1.93;;
6821;SDS011;3449;48.728;8.968;2024-02-26T08:32:57;1.43;;;1.33;;
6821;SDS011;3449;48.728;8.968;2024-02-26T08:35:24;1.57;;;1.20;;
6821;SDS011;3449;48.728;8.968;2024-02-26T08:37:50;1.43;;;0.90;;
6821;SDS011;3449;48.728;8.968;2024-02-26T08:40:19;1.07;;;0.97;;
6821;SDS011;3449;48.728;8.968;2024-02-26T08:42:45;0.80;;;0.70;;
6821;SDS011;3449;48.728;8.968;2024-02-26T08:45:12;3.17;;;0.90;;
6821;SDS011;3449;48.728;8.968;2024-02-26T08:47:39;1.73;;;0.60;;
6821;SDS011;3449;48.728;8.968;2024-02-26T08:50:06;2.20;;;0.70;;
6821;SDS011;3449;48.728;8.968;2024-02-26T08:52:34;0.70;;;0.70;;
6821;SDS011;3449;48.728;8.968;2024-02-26T08:55:01;0.80;;;0.80;;
6821;SDS011;3449;48.728;8.968;2024-02-26T08:57:30;1.40;;;0.93;;
6821;SDS011;3449;48.728;8.968;2024-02-26T08:59:58;1.17;;;0.90;;
6821;SDS011;3449;48.728;8.968;2024-02-26T09:02:25;0.60;;;0.57;;
6821;SDS011;3449;48.728;8.968;2024-02-26T09:04:52;0.97;;;0.87;;
6821;SDS011;3449;48.728;8.968;2024-02-26T09:07:20;4.00;;;0.73;;
6821;SDS011;3449;48.728;8.968;2024-02-26T09:09:47;1.50;;;1.10;;
6821;SDS011;3449;48.728;8.968;2024-02-26T09:12:14;4.20;;;1.07;;
6821;SDS011;3449;48.728;8.968;2024-02-26T09:14:42;2.30;;;1.07;;
6821;SDS011;3449;48.728;8.968;2024-02-26T09:17:09;2.30;;;0.93;;
6821;SDS011;3449;48.728;8.968;2024-02-26T09:19:35;1.27;;;1.10;;
6821;SDS011;3449;48.728;8.968;2024-02-26T09:22:03;2.23;;;1.07;;
6821;SDS011;3449;48.728;8.968;2024-02-26T09:24:30;1.70;;;1.10;;
6821;SDS011;3449;48.728;8.968;2024-02-26T09:26:56;0.83;;;0.83;;
6821;SDS011;3449;48.728;8.968;2024-02-26T09:29:23;1.33;;;0.90;;
6821;SDS011;3449;48.728;8.968;2024-02-26T09:31:52;1.60;;;1.10;;
6821;SDS011;3449;48.728;8.968;2024-02-26T09:34:19;1.73;;;1.63;;
6821;SDS011;3449;48.728;8.968;2024-02-26T09:36:46;2.07;;;1.37;;
6821;SDS011;3449;48.728;8.968;2024-02-26T09:39:13;2.70;;;1.03;;
6821;SDS011;3449;48.728;8.968;2024-02-26T09:41:45;3.00;;;1.03;;
6821;SDS011;3449;48.728;8.968;2024-02-26T09:44:12;1.47;;;1.00;;
6821;SDS011;3449;48.728;8.968;2024-02-26T09:46:45;2.07;;;1.13;;
6821;SDS011;3449;48.728;8.968;2024-02-26T09:49:16;1.27;;;0.73;;
6821;SDS011;3449;48.728;8.968;2024-02-26T09:51:44;2.10;;;1.17;;
6821;SDS011;3449;48.728;8.968;2024-02-26T09:54:13;1.57;;;0.90;;
6821;SDS011;3449;48.728;8.968;2024-02-26T09:56:41;1.20;;;1.10;;
6821;SDS011;3449;48.728;8.968;2024-02-26T09:59:10;0.90;;;0.90;;
6821;SDS011;3449;48.728;8.968;2024-02-26T10:01:39;1.03;;;0.83;;
6821;SDS011;3449;48.728;8.968;2024-02-26T10:04:08;1.13;;;0.87;;
6821;SDS011;3449;48.728;8.968;2024-02-26T10:06:37;2.00;;;0.87;;
6821;SDS011;3449;48.728;8.968;2024-02-26T10:09:04;1.80;;;1.07;;
6821;SDS011;3449;48.728;8.968;2024-02-26T10:11:35;1.30;;;1.20;;
6821;SDS011;3449;48.728;8.968;2024-02-26T10:14:03;2.20;;;0.77;;
6821;SDS011;3449;48.728;8.968;2024-02-26T10:16:30;0.80;;;0.80;;
6821;SDS011;3449;48.728;8.968;2024-02-26T10:18:59;1.80;;;1.20;;
6821;SDS011;3449;48.728;8.968;2024-02-26T10:21:26;2.03;;;1.00;;
6821;SDS011;3449;48.728;8.968;2024-02-26T10:23:54;2.10;;;1.20;;
6821;SDS011;3449;48.728;8.968;2024-02-26T10:26:21;1.27;;;0.83;;
6821;SDS011;3449;48.728;8.968;2024-02-26T10:28:48;1.20;;;1.10;;
6821;SDS011;3449;48.728;8.968;2024-02-26T10:31:15;1.80;;;1.27;;
6821;SDS011;3449;48.728;8.968;2024-02-26T10:33:42;0.90;;;0.87;;
6821;SDS011;3449;48.728;8.968;2024-02-26T10:36:09;2.37;;;0.77;;
6821;SDS011;3449;48.728;8.968;2024-02-26T10:38:37;2.97;;;1.00;;
6821;SDS011;3449;48.728;8.968;2024-02-26T10:41:05;0.67;;;0.67;;
6821;SDS011;3449;48.728;8.968;2024-02-26T10:43:33;1.70;;;0.67;;
6821;SDS011;3449;48.728;8.968;2024-02-26T10:46:00;0.87;;;0.77;;
6821;SDS011;3449;48.728;8.968;2024-02-26T10:48:27;1.57;;;0.97;;
6821;SDS011;3449;48.728;8.968;2024-02-26T10:50:54;0.90;;;0.90;;
6821;SDS011;3449;48.728;8.968;2024-02-26T10:53:22;1.20;;;0.80;;
6821;SDS011;3449;48.728;8.968;2024-02-26T10:55:52;1.63;;;0.70;;
6821;SDS011;3449;48.728;8.968;2024-02-26T10:58:22;1.07;;;0.73;;
6821;SDS011;3449;48.728;8.968;2024-02-26T11:00:50;0.67;;;0.53;;
6821;SDS011;3449;48.728;8.968;2024-02-26T11:03:17;1.97;;;0.90;;
6821;SDS011;3449;48.728;8.968;2024-02-26T11:05:45;0.50;;;0.43;;
6821;SDS011;3449;48.728;8.968;2024-02-26T11:08:14;2.70;;;0.60;;
6821;SDS011;3449;48.728;8.968;2024-02-26T11:10:42;0.90;;;0.53;;
6821;SDS011;3449;48.728;8.968;2024-02-26T11:13:10;0.93;;;0.93;;
6821;SDS011;3449;48.728;8.968;2024-02-26T11:15:41;2.10;;;0.90;;
6821;SDS011;3449;48.728;8.968;2024-02-26T11:18:09;2.50;;;0.80;;
6821;SDS011;3449;48.728;8.968;2024-02-26T11:20:38;0.73;;;0.73;;
6821;SDS011;3449;48.728;8.968;2024-02-26T11:23:07;0.87;;;0.80;;
6821;SDS011;3449;48.728;8.968;2024-02-26T11:25:34;3.30;;;0.60;;
6821;SDS011;3449;48.728;8.968;2024-02-26T11:28:03;1.00;;;0.60;;
6821;SDS011;3449;48.728;8.968;2024-02-26T11:30:33;0.93;;;0.83;;
6821;SDS011;3449;48.728;8.968;2024-02-26T11:33:05;1.17;;;0.70;;
6821;SDS011;3449;48.728;8.968;2024-02-26T11:35:33;1.13;;;0.70;;
6821;SDS011;3449;48.728;8.968;2024-02-26T11:38:02;1.77;;;0.70;;
6821;SDS011;3449;48.728;8.968;2024-02-26T11:40:31;1.43;;;0.60;;
6821;SDS011;3449;48.728;8.968;2024-02-26T11:42:59;0.80;;;0.80;;
6821;SDS011;3449;48.728;8.968;2024-02-26T11:45:47;1.57;;;0.60;;
6821;SDS011;3449;48.728;8.968;2024-02-26T11:48:20;1.77;;;0.67;;
6821;SDS011;3449;48.728;8.968;2024-02-26T11:50:49;1.17;;;0.50;;
6821;SDS011;3449;48.728;8.968;2024-02-26T11:53:20;1.00;;;0.87;;
6821;SDS011;3449;48.728;8.968;2024-02-26T11:55:48;0.57;;;0.57;;
6821;SDS011;3449;48.728;8.968;2024-02-26T11:58:35;1.23;;;0.87;;
6821;SDS011;3449;48.728;8.968;2024-02-26T12:01:04;2.00;;;0.97;;
6821;SDS011;3449;48.728;8.968;2024-02-26T12:03:33;0.60;;;0.50;;
6821;SDS011;3449;48.728;8.968;2024-02-26T12:05:59;0.97;;;0.83;;
6821;SDS011;3449;48.728;8.968;2024-02-26T12:08:27;1.77;;;1.67;;
6821;SDS011;3449;48.728;8.968;2024-02-26T12:10:54;1.00;;;1.00;;
6821;SDS011;3449;48.728;8.968;2024-02-26T12:13:25;1.10;;;0.70;;
6821;SDS011;3449;48.728;8.968;2024-02-26T12:15:57;0.73;;;0.73;;
6821;SDS011;3449;48.728;8.968;2024-02-26T12:18:24;4.63;;;0.90;;
6821;SDS011;3449;48.728;8.968;2024-02-26T12:20:59;1.23;;;0.83;;
6821;SDS011;3449;48.728;8.968;2024-02-26T12:23:26;3.03;;;1.00;;
6821;SDS011;3449;48.728;8.968;2024-02-26T12:25:54;0.90;;;0.67;;
6821;SDS011;3449;48.728;8.968;2024-02-26T12:28:27;1.00;;;0.70;;
6821;SDS011;3449;48.728;8.968;2024-02-26T12:30:54;1.00;;;0.90;;
6821;SDS011;3449;48.728;8.968;2024-02-26T12:33:21;0.80;;;0.80;;
6821;SDS011;3449;48.728;8.968;2024-02-26T12:35:48;2.60;;;0.73;;
6821;SDS011;3449;48.728;8.968;2024-02-26T12:38:17;1.13;;;0.83;;
6821;SDS011;3449;48.728;8.968;2024-02-26T12:40:44;2.10;;;0.63;;
6821;SDS011;3449;48.728;8.968;2024-02-26T12:43:13;3.83;;;0.97;;
6821;SDS011;3449;48.728;8.968;2024-02-26T12:45:42;1.73;;;0.87;;
6821;SDS011;3449;48.728;8.968;2024-02-26T12:48:11;0.80;;;0.70;;
6821;SDS011;3449;48.728;8.968;2024-02-26T12:50:39;1.00;;;1.00;;
6821;SDS011;3449;48.728;8.968;2024-02-26T12:53:06;0.90;;;0.70;;
6821;SDS011;3449;48.728;8.968;2024-02-26T12:55:34;1.43;;;0.80;;
6821;SDS011;3449;48.728;8.968;2024-02-26T12:58:04;0.50;;;0.50;;
6821;SDS011;3449;48.728;8.968;2024-02-26T13:00:30;0.60;;;0.50;;
6821;SDS011;3449;48.728;8.968;2024-02-26T13:02:57;1.80;;;0.50;;
6821;SDS011;3449;48.728;8.968;2024-02-26T13:05:26;0.50;;;0.43;;
6821;SDS011;3449;48.728;8.968;2024-02-26T13:07:53;0.70;;;0.60;;
6821;SDS011;3449;48.728;8.968;2024-02-26T13:10:21;2.50;;;0.73;;
6821;SDS011;3449;48.728;8.968;2024-02-26T13:12:51;0.60;;;0.60;;
6821;SDS011;3449;48.728;8.968;2024-02-26T13:15:19;0.50;;;0.50;;
6821;SDS011;3449;48.728;8.968;2024-02-26T13:17:47;0.50;;;0.40;;
6821;SDS011;3449;48.728;8.968;2024-02-26T13:20:25;1.10;;;0.57;;
6821;SDS011;3449;48.728;8.968;2024-02-26T13:22:59;0.40;;;0.40;;
6821;SDS011;3449;48.728;8.968;2024-02-26T13:25:26;0.90;;;0.63;;
6821;SDS011;3449;48.728;8.968;2024-02-26T13:28:05;0.80;;;0.47;;
6821;SDS011;3449;48.728;8.968;2024-02-26T13:30:33;0.40;;;0.33;;
6821;SDS011;3449;48.728;8.968;2024-02-26T13:33:06;0.50;;;0.47;;
6821;SDS011;3449;48.728;8.968;2024-02-26T13:35:35;0.80;;;0.60;;
6821;SDS011;3449;48.728;8.968;2024-02-26T13:38:04;0.50;;;0.50;;
6821;SDS011;3449;48.728;8.968;2024-02-26T13:40:30;0.50;;;0.50;;
6821;SDS011;3449;48.728;8.968;2024-02-26T13:42:59;1.30;;;0.60;;
6821;SDS011;3449;48.728;8.968;2024-02-26T13:45:27;0.73;;;0.40;;
6821;SDS011;3449;48.728;8.968;2024-02-26T13:47:54;2.87;;;0.53;;
6821;SDS011;3449;48.728;8.968;2024-02-26T13:50:27;0.53;;;0.40;;
6821;SDS011;3449;48.728;8.968;2024-02-26T13:52:53;0.50;;;0.40;;
6821;SDS011;3449;48.728;8.968;2024-02-26T13:55:21;0.50;;;0.40;;
6821;SDS011;3449;48.728;8.968;2024-02-26T13:57:49;1.27;;;0.50;;
6821;SDS011;3449;48.728;8.968;2024-02-26T14:00:18;1.70;;;0.60;;
6821;SDS011;3449;48.728;8.968;2024-02-26T14:02:47;1.40;;;0.90;;
6821;SDS011;3449;48.728;8.968;2024-02-26T14:05:14;2.40;;;1.43;;
6821;SDS011;3449;48.728;8.968;2024-02-26T14:07:41;0.60;;;0.50;;
6821;SDS011;3449;48.728;8.968;2024-02-26T14:10:08;0.70;;;0.70;;
6821;SDS011;3449;48.728;8.968;2024-02-26T14:12:37;0.67;;;0.67;;
6821;SDS011;3449;48.728;8.968;2024-02-26T14:15:07;0.50;;;0.50;;
6821;SDS011;3449;48.728;8.968;2024-02-26T14:17:35;2.70;;;0.50;;
6821;SDS011;3449;48.728;8.968;2024-02-26T14:20:04;0.80;;;0.60;;
6821;SDS011;3449;48.728;8.968;2024-02-26T14:22:32;1.20;;;0.60;;
6821;SDS011;3449;48.728;8.968;2024-02-26T14:24:59;3.53;;;0.53;;
6821;SDS011;3449;48.728;8.968;2024-02-26T14:27:26;0.87;;;0.40;;
6821;SDS011;3449;48.728;8.968;2024-02-26T14:29:53;1.13;;;0.50;;
6821;SDS011;3449;48.728;8.968;2024-02-26T14:32:20;1.83;;;0.90;;
6821;SDS011;3449;48.728;8.968;2024-02-26T14:34:47;2.43;;;0.80;;
6821;SDS011;3449;48.728;8.968;2024-02-26T14:37:15;1.80;;;0.70;;
6821;SDS011;3449;48.728;8.968;2024-02-26T14:39:42;0.73;;;0.70;;
6821;SDS011;3449;48.728;8.968;2024-02-26T14:42:09;1.00;;;0.60;;
6821;SDS011;3449;48.728;8.968;2024-02-26T14:44:36;1.17;;;0.50;;
6821;SDS011;3449;48.728;8.968;2024-02-26T14:47:02;1.47;;;0.70;;
6821;SDS011;3449;48.728;8.968;2024-02-26T14:49:30;2.60;;;1.00;;
6821;SDS011;3449;48.728;8.968;2024-02-26T14:51:57;0.63;;;0.60;;
6821;SDS011;3449;48.728;8.968;2024-02-26T14:54:25;2.77;;;0.70;;
6821;SDS011;3449;48.728;8.968;2024-02-26T14:56:52;0.97;;;0.90;;
6821;SDS011;3449;48.728;8.968;2024-02-26T14:59:19;0.90;;;0.70;;
6821;SDS011;3449;48.728;8.968;2024-02-26T15:01:45;1.53;;;0.90;;
6821;SDS011;3449;48.728;8.968;2024-02-26T15:04:12;1.03;;;0.70;;
6821;SDS011;3449;48.728;8.968;2024-02-26T15:06:47;0.80;;;0.80;;
6821;SDS011;3449;48.728;8.968;2024-02-26T15:09:14;1.33;;;0.77;;
6821;SDS011;3449;48.728;8.968;2024-02-26T15:11:41;0.80;;;0.80;;
6821;SDS011;3449;48.728;8.968;2024-02-26T15:14:09;1.17;;;1.07;;
6821;SDS011;3449;48.728;8.968;2024-02-26T15:16:36;1.30;;;0.97;;
6821;SDS011;3449;48.728;8.968;2024-02-26T15:19:03;1.60;;;1.20;;